sensor_id;sensor_type;location;lat;lon;timestamp;pressure;altitude;pressure_sealevel;temperature;humidity
45113;BME280;30873;53.908;27.576;2023-05-03T00:01:57;1020.1;;;14.7;100
45113;BME280;30873;53.908;27.576;2023-05-03T00:06:57;1020.1;;;14.6;100
45113;BME280;30873;53.908;27.576;2023-05-03T00:11:34;1020.2;;;14.6;100
45113;BME280;30873;53.908;27.576;2023-05-03T00:16:31;1020.2;;;14.6;100
45113;BME280;30873;53.908;27.576;2023-05-03T00:21:57;1020.1;;;14.5;100
45113;BME280;30873;53.908;27.576;2023-05-03T00:26:47;1020.2;;;14.5;100
45113;BME280;30873;53.908;27.576;2023-05-03T00:31:20;1020.2;;;14.5;100
45113;BME280;30873;53.908;27.576;2023-05-03T00:36:45;1020.2;;;14.5;100
45113;BME280;30873;53.908;27.576;2023-05-03T00:42:01;1020.2;;;14.5;100
45113;BME280;30873;53.908;27.576;2023-05-03T00:46:11;1020.2;;;14.4;100
45113;BME280;30873;53.908;27.576;2023-05-03T00:51:31;1020.2;;;14.4;100
45113;BME280;30873;53.908;27.576;2023-05-03T00:57:01;1020.2;;;14.5;100
45113;BME280;30873;53.908;27.576;2023-05-03T01:01:11;1020.2;;;14.5;100
45113;BME280;30873;53.908;27.576;2023-05-03T01:06:12;1020.2;;;14.5;100
45113;BME280;30873;53.908;27.576;2023-05-03T01:11:46;1020.2;;;14.5;100
45113;BME280;30873;53.908;27.576;2023-05-03T01:16:12;1020.3;;;14.5;100
45113;BME280;30873;53.908;27.576;2023-05-03T01:21:37;1020.3;;;14.5;100
45113;BME280;30873;53.908;27.576;2023-05-03T01:26:14;1020.3;;;14.5;100
45113;BME280;30873;53.908;27.576;2023-05-03T01:32:01;1020.2;;;14.5;100
45113;BME280;30873;53.908;27.576;2023-05-03T01:36:47;1020.2;;;14.6;100
45113;BME280;30873;53.908;27.576;2023-05-03T01:42:01;1020.2;;;14.5;100
45113;BME280;30873;53.908;27.576;2023-05-03T01:46:29;1020.3;;;14.4;100
45113;BME280;30873;53.908;27.576;2023-05-03T01:52:01;1020.3;;;14.4;100
45113;BME280;30873;53.908;27.576;2023-05-03T01:56:21;1020.2;;;14.4;100
45113;BME280;30873;53.908;27.576;2023-05-03T02:01:43;1020.1;;;14.3;100
45113;BME280;30873;53.908;27.576;2023-05-03T02:06:37;1020.2;;;14.5;100
45113;BME280;30873;53.908;27.576;2023-05-03T02:11:41;1020.2;;;14.6;100
45113;BME280;30873;53.908;27.576;2023-05-03T02:16:33;1020.3;;;14.5;100
45113;BME280;30873;53.908;27.576;2023-05-03T02:21:35;1020.2;;;14.5;100
45113;BME280;30873;53.908;27.576;2023-05-03T02:26:31;1020.3;;;14.4;100
45113;BME280;30873;53.908;27.576;2023-05-03T02:31:59;1020.2;;;14.4;100
45113;BME280;30873;53.908;27.576;2023-05-03T02:37:01;1020.2;;;14.4;100
45113;BME280;30873;53.908;27.576;2023-05-03T02:41:35;1020.3;;;14.3;100
45113;BME280;30873;53.908;27.576;2023-05-03T02:46:47;1020.4;;;13.8;100
45113;BME280;30873;53.908;27.576;2023-05-03T02:51:49;1020.4;;;13.5;100
45113;BME280;30873;53.908;27.576;2023-05-03T02:56:25;1020.5;;;13.3;100
45113;BME280;30873;53.908;27.576;2023-05-03T03:01:11;1020.7;;;13.1;100
45113;BME280;30873;53.908;27.576;2023-05-03T03:06:13;1021;;;12.8;100
45113;BME280;30873;53.908;27.576;2023-05-03T03:12:01;1021.2;;;12.6;100
45113;BME280;30873;53.908;27.576;2023-05-03T03:17:01;1021.1;;;12.6;100
45113;BME280;30873;53.908;27.576;2023-05-03T03:21:11;1021.2;;;12.4;100
45113;BME280;30873;53.908;27.576;2023-05-03T03:27:01;1021.1;;;12.3;100
45113;BME280;30873;53.908;27.576;2023-05-03T03:31:51;1021.1;;;12.3;100
45113;BME280;30873;53.908;27.576;2023-05-03T03:37:01;1021.2;;;12.2;100
45113;BME280;30873;53.908;27.576;2023-05-03T03:41:11;1021.2;;;12.2;100
45113;BME280;30873;53.908;27.576;2023-05-03T03:46:13;1021.3;;;12.2;100
45113;BME280;30873;53.908;27.576;2023-05-03T03:51:11;1021.3;;;11.9;100
45113;BME280;30873;53.908;27.576;2023-05-03T03:56:49;1021.4;;;11.8;100
45113;BME280;30873;53.908;27.576;2023-05-03T04:02:01;1021.5;;;11.6;100
45113;BME280;30873;53.908;27.576;2023-05-03T04:06:11;1021.7;;;11.5;100
45113;BME280;30873;53.908;27.576;2023-05-03T04:12:01;1021.8;;;11.4;100
45113;BME280;30873;53.908;27.576;2023-05-03T04:16:35;1021.7;;;11.6;100
45113;BME280;30873;53.908;27.576;2023-05-03T04:21:19;1021.6;;;11.7;100
45113;BME280;30873;53.908;27.576;2023-05-03T04:26:51;1021.7;;;11.7;100
45113;BME280;30873;53.908;27.576;2023-05-03T04:31:25;1021.6;;;11.8;100
45113;BME280;30873;53.908;27.576;2023-05-03T04:36:35;1021.6;;;11.9;100
45113;BME280;30873;53.908;27.576;2023-05-03T04:41:45;1021.7;;;11.8;100
45113;BME280;30873;53.908;27.576;2023-05-03T04:46:59;1021.7;;;11.8;100
45113;BME280;30873;53.908;27.576;2023-05-03T04:51:45;1022;;;11.6;100
45113;BME280;30873;53.908;27.576;2023-05-03T04:56:35;1022;;;11.5;100
45113;BME280;30873;53.908;27.576;2023-05-03T05:02:01;1021.9;;;11.6;100
45113;BME280;30873;53.908;27.576;2023-05-03T05:07:01;1021.9;;;11.6;100
45113;BME280;30873;53.908;27.576;2023-05-03T05:11:23;1022.2;;;11.4;100
45113;BME280;30873;53.908;27.576;2023-05-03T05:16:45;1022.4;;;11.2;100
45113;BME280;30873;53.908;27.576;2023-05-03T05:22:01;1022.4;;;11.3;100
45113;BME280;30873;53.908;27.576;2023-05-03T05:26:51;1022.5;;;11.3;100
45113;BME280;30873;53.908;27.576;2023-05-03T05:31:29;1022.5;;;11.4;100
45113;BME280;30873;53.908;27.576;2023-05-03T05:36:33;1022.4;;;11.6;100
45113;BME280;30873;53.908;27.576;2023-05-03T05:41:59;1022.4;;;11.6;100
45113;BME280;30873;53.908;27.576;2023-05-03T05:46:23;1022.5;;;11.3;100
45113;BME280;30873;53.908;27.576;2023-05-03T05:51:45;1022.6;;;11.3;100
45113;BME280;30873;53.908;27.576;2023-05-03T05:56:59;1022.7;;;11.4;100
45113;BME280;30873;53.908;27.576;2023-05-03T06:01:47;1022.6;;;11.3;100
45113;BME280;30873;53.908;27.576;2023-05-03T06:06:37;1022.7;;;11.1;100
45113;BME280;30873;53.908;27.576;2023-05-03T06:11:45;1022.8;;;11.1;100
45113;BME280;30873;53.908;27.576;2023-05-03T06:16:19;1022.8;;;11.3;100
45113;BME280;30873;53.908;27.576;2023-05-03T06:21:13;1022.8;;;11.3;100
45113;BME280;30873;53.908;27.576;2023-05-03T06:26:45;1022.8;;;11.4;100
45113;BME280;30873;53.908;27.576;2023-05-03T06:32:01;1022.8;;;11.5;100
45113;BME280;30873;53.908;27.576;2023-05-03T06:36:47;1022.9;;;11.5;100
45113;BME280;30873;53.908;27.576;2023-05-03T06:41:59;1023;;;11.6;100
45113;BME280;30873;53.908;27.576;2023-05-03T06:46:11;1023;;;11.6;100
45113;BME280;30873;53.908;27.576;2023-05-03T06:52:01;1023;;;11.8;100
45113;BME280;30873;53.908;27.576;2023-05-03T06:56:11;1023;;;12.1;100
45113;BME280;30873;53.908;27.576;2023-05-03T07:01:37;1023.1;;;12.1;100
45113;BME280;30873;53.908;27.576;2023-05-03T07:07:01;1023.2;;;12.6;100
45113;BME280;30873;53.908;27.576;2023-05-03T07:11:35;1023.3;;;12.8;100
45113;BME280;30873;53.908;27.576;2023-05-03T07:17:01;1023.3;;;12.9;100
45113;BME280;30873;53.908;27.576;2023-05-03T07:21:11;1023.4;;;13.2;100
45113;BME280;30873;53.908;27.576;2023-05-03T07:26:11;1023.4;;;13.7;100
45113;BME280;30873;53.908;27.576;2023-05-03T07:31:51;1023.3;;;14.5;99.1
45113;BME280;30873;53.908;27.576;2023-05-03T07:36:23;1023.4;;;14.6;92.9
45113;BME280;30873;53.908;27.576;2023-05-03T07:41:21;1023.4;;;14.9;92.2
45113;BME280;30873;53.908;27.576;2023-05-03T07:46:47;1023.5;;;15.2;90.1
45113;BME280;30873;53.908;27.576;2023-05-03T07:52:01;1023.5;;;15.1;84.8
45113;BME280;30873;53.908;27.576;2023-05-03T07:56:31;1023.5;;;15.2;81.2
45113;BME280;30873;53.908;27.576;2023-05-03T08:01:47;1023.5;;;15.8;79.9
45113;BME280;30873;53.908;27.576;2023-05-03T08:06:59;1023.5;;;16;76.9
45113;BME280;30873;53.908;27.576;2023-05-03T08:11:45;1023.5;;;16.4;74.4
45113;BME280;30873;53.908;27.576;2023-05-03T08:16:37;1023.5;;;17.1;71
45113;BME280;30873;53.908;27.576;2023-05-03T08:21:45;1023.5;;;17.4;67.9
45113;BME280;30873;53.908;27.576;2023-05-03T08:26:59;1023.6;;;17.4;65.1
45113;BME280;30873;53.908;27.576;2023-05-03T08:31:49;1023.6;;;16.7;60.8
45113;BME280;30873;53.908;27.576;2023-05-03T08:36:47;1023.6;;;16.7;60.6
45113;BME280;30873;53.908;27.576;2023-05-03T08:41:29;1023.6;;;17.1;59.5
45113;BME280;30873;53.908;27.576;2023-05-03T08:47:01;1023.6;;;17.3;57.1
45113;BME280;30873;53.908;27.576;2023-05-03T08:51:23;1023.6;;;17.4;53.8
45113;BME280;30873;53.908;27.576;2023-05-03T08:56:47;1023.6;;;18.4;51.1
45113;BME280;30873;53.908;27.576;2023-05-03T09:02:01;1023.6;;;19.2;47.2
45113;BME280;30873;53.908;27.576;2023-05-03T09:06:18;1023.5;;;19.8;43.9
45113;BME280;30873;53.908;27.576;2023-05-03T09:11:25;1023.5;;;20.2;43.7
45113;BME280;30873;53.908;27.576;2023-05-03T09:16:43;1023.5;;;20.3;41.8
45113;BME280;30873;53.908;27.576;2023-05-03T09:21:27;1023.5;;;20.2;41.7
45113;BME280;30873;53.908;27.576;2023-05-03T09:26:49;1023.5;;;20;40.8
45113;BME280;30873;53.908;27.576;2023-05-03T09:31:34;1023.5;;;19.9;40.2
45113;BME280;30873;53.908;27.576;2023-05-03T09:36:57;1023.6;;;20.2;39.8
45113;BME280;30873;53.908;27.576;2023-05-03T09:41:43;1023.6;;;20.6;38.6
45113;BME280;30873;53.908;27.576;2023-05-03T09:47:01;1023.6;;;20.5;38.4
45113;BME280;30873;53.908;27.576;2023-05-03T09:51:29;1023.6;;;21.2;38.2
45113;BME280;30873;53.908;27.576;2023-05-03T09:56:57;1023.6;;;22.2;35.9
45113;BME280;30873;53.908;27.576;2023-05-03T10:01:25;1023.6;;;23.5;34.7
45113;BME280;30873;53.908;27.576;2023-05-03T10:06:43;1023.6;;;24.4;31.2
45113;BME280;30873;53.908;27.576;2023-05-03T10:11:11;1023.6;;;25.5;29.1
45113;BME280;30873;53.908;27.576;2023-05-03T10:16:11;1023.7;;;26.3;27.8
45113;BME280;30873;53.908;27.576;2023-05-03T10:21:50;1023.7;;;26;27.5
45113;BME280;30873;53.908;27.576;2023-05-03T10:26:23;1023.6;;;26.6;27.4
45113;BME280;30873;53.908;27.576;2023-05-03T10:31:42;1023.6;;;28.1;25.5
45113;BME280;30873;53.908;27.576;2023-05-03T10:37:00;1023.6;;;28.8;24.3
45113;BME280;30873;53.908;27.576;2023-05-03T10:42:01;1023.6;;;29.3;23.9
45113;BME280;30873;53.908;27.576;2023-05-03T10:46:42;1023.6;;;30.2;23.1
45113;BME280;30873;53.908;27.576;2023-05-03T10:51:43;1023.7;;;30.3;22.5
45113;BME280;30873;53.908;27.576;2023-05-03T10:56:49;1023.7;;;30.5;21.8
45113;BME280;30873;53.908;27.576;2023-05-03T11:01:12;1023.7;;;29.6;21.7
45113;BME280;30873;53.908;27.576;2023-05-03T11:06:34;1023.6;;;29.1;22.1
45113;BME280;30873;53.908;27.576;2023-05-03T11:12:02;1023.7;;;30.5;20.6
45113;BME280;30873;53.908;27.576;2023-05-03T11:16:59;1023.6;;;31.7;20.3
45113;BME280;30873;53.908;27.576;2023-05-03T11:21:35;1023.6;;;32.6;19.7
45113;BME280;30873;53.908;27.576;2023-05-03T11:26:19;1023.6;;;33.3;19
45113;BME280;30873;53.908;27.576;2023-05-03T11:31:59;1023.6;;;32.8;17.6
45113;BME280;30873;53.908;27.576;2023-05-03T11:36:49;1023.5;;;33.1;17.5
45113;BME280;30873;53.908;27.576;2023-05-03T11:41:11;1023.6;;;32.2;17.3
45113;BME280;30873;53.908;27.576;2023-05-03T11:46:11;1023.6;;;32.9;17.5
45113;BME280;30873;53.908;27.576;2023-05-03T11:51:23;1023.6;;;33.5;16.8
45113;BME280;30873;53.908;27.576;2023-05-03T11:56:11;1023.6;;;33.5;16.6
45113;BME280;30873;53.908;27.576;2023-05-03T12:01:29;1023.5;;;34.3;16.3
45113;BME280;30873;53.908;27.576;2023-05-03T12:06:59;1023.5;;;34.9;15.2
45113;BME280;30873;53.908;27.576;2023-05-03T12:11:21;1023.5;;;34.6;14.6
45113;BME280;30873;53.908;27.576;2023-05-03T12:16:11;1023.5;;;33.3;15.2
45113;BME280;30873;53.908;27.576;2023-05-03T12:21:42;1023.5;;;33.9;15.2
45113;BME280;30873;53.908;27.576;2023-05-03T12:26:21;1023.5;;;35;14.4
45113;BME280;30873;53.908;27.576;2023-05-03T12:31:47;1023.5;;;34.7;14.5
45113;BME280;30873;53.908;27.576;2023-05-03T12:36:31;1023.4;;;34.8;14.3
45113;BME280;30873;53.908;27.576;2023-05-03T12:41:59;1023.4;;;36;13.3
45113;BME280;30873;53.908;27.576;2023-05-03T12:46:45;1023.4;;;36;13.7
45113;BME280;30873;53.908;27.576;2023-05-03T12:51:49;1023.5;;;35.3;13.3
45113;BME280;30873;53.908;27.576;2023-05-03T12:56:19;1023.5;;;34.5;13.3
45113;BME280;30873;53.908;27.576;2023-05-03T13:01:59;1023.4;;;34.5;13.5
45113;BME280;30873;53.908;27.576;2023-05-03T13:06:33;1023.4;;;34.5;13.3
45113;BME280;30873;53.908;27.576;2023-05-03T13:11:43;1023.4;;;35.9;13
45113;BME280;30873;53.908;27.576;2023-05-03T13:16:35;1023.4;;;36.7;12.5
45113;BME280;30873;53.908;27.576;2023-05-03T13:21:45;1023.4;;;36.5;12.1
45113;BME280;30873;53.908;27.576;2023-05-03T13:26:35;1023.4;;;36.3;12.5
45113;BME280;30873;53.908;27.576;2023-05-03T13:31:33;1023.4;;;36;12.6
45113;BME280;30873;53.908;27.576;2023-05-03T13:36:19;1023.3;;;36.1;12.2
45113;BME280;30873;53.908;27.576;2023-05-03T13:42:01;1023.3;;;35.7;12.5
45113;BME280;30873;53.908;27.576;2023-05-03T13:47:01;1023.3;;;37.4;12.2
45113;BME280;30873;53.908;27.576;2023-05-03T13:51:11;1023.3;;;37.9;11.7
45113;BME280;30873;53.908;27.576;2023-05-03T13:56:47;1023.3;;;37.5;11.7
45113;BME280;30873;53.908;27.576;2023-05-03T14:01:35;1023.4;;;36;11.9
45113;BME280;30873;53.908;27.576;2023-05-03T14:06:19;1023.4;;;34.6;12.3
45113;BME280;30873;53.908;27.576;2023-05-03T14:11:35;1023.3;;;35.9;11.8
45113;BME280;30873;53.908;27.576;2023-05-03T14:16:43;1023.4;;;37.1;11.8
45113;BME280;30873;53.908;27.576;2023-05-03T14:22:01;1023.4;;;36.6;12.1
45113;BME280;30873;53.908;27.576;2023-05-03T14:27:01;1023.5;;;33.6;13.5
45113;BME280;30873;53.908;27.576;2023-05-03T14:31:11;1023.5;;;29.4;15.9
45113;BME280;30873;53.908;27.576;2023-05-03T14:37:01;1023.5;;;30.8;15.3
45113;BME280;30873;53.908;27.576;2023-05-03T14:41:49;1023.6;;;29.4;15.8
45113;BME280;30873;53.908;27.576;2023-05-03T14:46:11;1023.5;;;30.2;15.4
45113;BME280;30873;53.908;27.576;2023-05-03T14:51:31;1023.5;;;32.6;14.4
45113;BME280;30873;53.908;27.576;2023-05-03T14:56:47;1023.6;;;29.6;16
45113;BME280;30873;53.908;27.576;2023-05-03T15:01:15;1023.6;;;31.9;15.2
45113;BME280;30873;53.908;27.576;2023-05-03T15:06:45;1023.6;;;34.4;13.5
45113;BME280;30873;53.908;27.576;2023-05-03T15:11:59;1023.5;;;35.9;12.7
45113;BME280;30873;53.908;27.576;2023-05-03T15:16:11;1023.6;;;36.1;12.3
45113;BME280;30873;53.908;27.576;2023-05-03T15:22:01;1023.6;;;36.3;12.4
45113;BME280;30873;53.908;27.576;2023-05-03T15:26:21;1023.6;;;36.2;12.5
45113;BME280;30873;53.908;27.576;2023-05-03T15:31:21;1023.7;;;35.4;12.8
45113;BME280;30873;53.908;27.576;2023-05-03T15:36:49;1023.7;;;34.1;13.3
45113;BME280;30873;53.908;27.576;2023-05-03T15:41:31;1023.7;;;34.5;13.1
45113;BME280;30873;53.908;27.576;2023-05-03T15:46:21;1023.8;;;30.3;14.9
45113;BME280;30873;53.908;27.576;2023-05-03T15:51:47;1023.8;;;29.1;15.8
45113;BME280;30873;53.908;27.576;2023-05-03T15:56:49;1023.8;;;31.4;14.8
45113;BME280;30873;53.908;27.576;2023-05-03T16:02:01;1023.8;;;31.9;14.4
45113;BME280;30873;53.908;27.576;2023-05-03T16:06:35;1023.9;;;30.7;15
45113;BME280;30873;53.908;27.576;2023-05-03T16:12:01;1023.9;;;30.4;15.3
45113;BME280;30873;53.908;27.576;2023-05-03T16:17:01;1023.9;;;30.1;15.3
45113;BME280;30873;53.908;27.576;2023-05-03T16:21:35;1023.9;;;30.3;15.3
45113;BME280;30873;53.908;27.576;2023-05-03T16:26:45;1024;;;30.9;15.1
45113;BME280;30873;53.908;27.576;2023-05-03T16:32:01;1023.9;;;31.5;14.7
45113;BME280;30873;53.908;27.576;2023-05-03T16:36:37;1024;;;31.2;14.8
45113;BME280;30873;53.908;27.576;2023-05-03T16:41:37;1024.1;;;31.1;14.8
45113;BME280;30873;53.908;27.576;2023-05-03T16:46:32;1024.1;;;30.7;15.1
45113;BME280;30873;53.908;27.576;2023-05-03T16:52:01;1024.2;;;29.8;15.8
45113;BME280;30873;53.908;27.576;2023-05-03T16:56:11;1024.2;;;28.1;16.9
45113;BME280;30873;53.908;27.576;2023-05-03T17:01:37;1024.3;;;25.7;18.3
45113;BME280;30873;53.908;27.576;2023-05-03T17:06:59;1024.4;;;22.9;20.6
45113;BME280;30873;53.908;27.576;2023-05-03T17:11:12;1024.5;;;21.3;22.4
45113;BME280;30873;53.908;27.576;2023-05-03T17:16:37;1024.5;;;20;23.8
45113;BME280;30873;53.908;27.576;2023-05-03T17:21:21;1024.5;;;19.2;24.8
45113;BME280;30873;53.908;27.576;2023-05-03T17:26:11;1024.6;;;18.6;25.5
45113;BME280;30873;53.908;27.576;2023-05-03T17:31:49;1024.7;;;18.1;25.9
45113;BME280;30873;53.908;27.576;2023-05-03T17:36:33;1024.7;;;17.7;26.9
45113;BME280;30873;53.908;27.576;2023-05-03T17:41:59;1024.7;;;17.4;27.4
45113;BME280;30873;53.908;27.576;2023-05-03T17:46:45;1024.7;;;17.2;28.1
45113;BME280;30873;53.908;27.576;2023-05-03T17:51:57;1024.8;;;16.9;28.7
45113;BME280;30873;53.908;27.576;2023-05-03T17:56:29;1024.9;;;16.6;29.1
45113;BME280;30873;53.908;27.576;2023-05-03T18:01:57;1024.9;;;16.4;29.6
45113;BME280;30873;53.908;27.576;2023-05-03T18:06:21;1025;;;16.2;29.9
45113;BME280;30873;53.908;27.576;2023-05-03T18:11:13;1025;;;16.1;29.9
45113;BME280;30873;53.908;27.576;2023-05-03T18:16:35;1025;;;15.9;30.3
45113;BME280;30873;53.908;27.576;2023-05-03T18:21:11;1025.1;;;15.8;30.8
45113;BME280;30873;53.908;27.576;2023-05-03T18:26:43;1025.1;;;15.7;31.4
45113;BME280;30873;53.908;27.576;2023-05-03T18:31:31;1025.2;;;15.6;32.1
45113;BME280;30873;53.908;27.576;2023-05-03T18:36:21;1025.2;;;15.3;32.5
45113;BME280;30873;53.908;27.576;2023-05-03T18:41:59;1025.3;;;15.2;33.9
45113;BME280;30873;53.908;27.576;2023-05-03T18:46:59;1025.3;;;15;35.1
45113;BME280;30873;53.908;27.576;2023-05-03T18:51:11;1025.4;;;14.7;36.5
45113;BME280;30873;53.908;27.576;2023-05-03T18:56:45;1025.3;;;14.6;37
45113;BME280;30873;53.908;27.576;2023-05-03T19:01:47;1025.4;;;14.5;37.5
45113;BME280;30873;53.908;27.576;2023-05-03T19:06:11;1025.4;;;14.3;38.4
45113;BME280;30873;53.908;27.576;2023-05-03T19:11:25;1025.4;;;14.1;38.9
45113;BME280;30873;53.908;27.576;2023-05-03T19:16:59;1025.4;;;13.9;39.7
45113;BME280;30873;53.908;27.576;2023-05-03T19:21:57;1025.4;;;13.8;40.7
45113;BME280;30873;53.908;27.576;2023-05-03T19:26:37;1025.5;;;13.7;41.2
45113;BME280;30873;53.908;27.576;2023-05-03T19:31:23;1025.5;;;13.6;41.8
45113;BME280;30873;53.908;27.576;2023-05-03T19:37:01;1025.5;;;13.5;42.3
45113;BME280;30873;53.908;27.576;2023-05-03T19:41:13;1025.5;;;13.5;42.3
45113;BME280;30873;53.908;27.576;2023-05-03T19:46:21;1025.6;;;13.4;43.5
45113;BME280;30873;53.908;27.576;2023-05-03T19:51:11;1025.7;;;13.3;44.6
45113;BME280;30873;53.908;27.576;2023-05-03T19:57:01;1025.7;;;13.1;45.9
45113;BME280;30873;53.908;27.576;2023-05-03T20:01:23;1025.7;;;13.1;46.5
45113;BME280;30873;53.908;27.576;2023-05-03T20:06:25;1025.7;;;13;47.1
45113;BME280;30873;53.908;27.576;2023-05-03T20:12:01;1025.8;;;12.9;48.2
45113;BME280;30873;53.908;27.576;2023-05-03T20:16:37;1025.8;;;12.9;49
45113;BME280;30873;53.908;27.576;2023-05-03T20:21:37;1025.8;;;12.8;50.3
45113;BME280;30873;53.908;27.576;2023-05-03T20:26:45;1025.8;;;12.8;51.5
45113;BME280;30873;53.908;27.576;2023-05-03T20:31:21;1025.8;;;12.6;52.9
45113;BME280;30873;53.908;27.576;2023-05-03T20:36:51;1025.8;;;12.6;53.5
45113;BME280;30873;53.908;27.576;2023-05-03T20:41:35;1025.7;;;12.5;54.9
45113;BME280;30873;53.908;27.576;2023-05-03T20:46:59;1025.7;;;12.5;56
45113;BME280;30873;53.908;27.576;2023-05-03T20:51:45;1025.7;;;12.4;57.3
45113;BME280;30873;53.908;27.576;2023-05-03T20:56:59;1025.7;;;12.3;58.8
45113;BME280;30873;53.908;27.576;2023-05-03T21:01:31;1025.7;;;12.2;60.4
45113;BME280;30873;53.908;27.576;2023-05-03T21:07:01;1025.7;;;12.1;62.3
45113;BME280;30873;53.908;27.576;2023-05-03T21:11:11;1025.7;;;12.2;63.8
45113;BME280;30873;53.908;27.576;2023-05-03T21:16:45;1025.7;;;12.1;65.8
45113;BME280;30873;53.908;27.576;2023-05-03T21:21:51;1025.7;;;12;67.5
45113;BME280;30873;53.908;27.576;2023-05-03T21:26:11;1025.7;;;11.9;69.2
45113;BME280;30873;53.908;27.576;2023-05-03T21:31:31;1025.7;;;11.8;71.6
45113;BME280;30873;53.908;27.576;2023-05-03T21:36:35;1025.7;;;11.8;72.3
45113;BME280;30873;53.908;27.576;2023-05-03T21:41:19;1025.7;;;11.7;74.1
45113;BME280;30873;53.908;27.576;2023-05-03T21:46:59;1025.7;;;11.6;76
45113;BME280;30873;53.908;27.576;2023-05-03T21:51:51;1025.7;;;11.5;77.8
45113;BME280;30873;53.908;27.576;2023-05-03T21:56:11;1025.7;;;11.5;79.1
45113;BME280;30873;53.908;27.576;2023-05-03T22:01:47;1025.6;;;11.4;80.3
45113;BME280;30873;53.908;27.576;2023-05-03T22:06:51;1025.6;;;11.4;81.5
45113;BME280;30873;53.908;27.576;2023-05-03T22:11:23;1025.7;;;11.3;82.9
45113;BME280;30873;53.908;27.576;2023-05-03T22:16:37;1025.8;;;11.2;85
45113;BME280;30873;53.908;27.576;2023-05-03T22:21:43;1025.8;;;11.2;85.9
45113;BME280;30873;53.908;27.576;2023-05-03T22:27:01;1025.8;;;11.1;86.7
45113;BME280;30873;53.908;27.576;2023-05-03T22:31:25;1025.8;;;11;88.3
45113;BME280;30873;53.908;27.576;2023-05-03T22:36:35;1025.8;;;11;89.2
45113;BME280;30873;53.908;27.576;2023-05-03T22:42:01;1025.8;;;10.9;90.3
45113;BME280;30873;53.908;27.576;2023-05-03T22:46:49;1025.8;;;10.8;91.9
45113;BME280;30873;53.908;27.576;2023-05-03T22:51:11;1025.8;;;10.7;92.6
45113;BME280;30873;53.908;27.576;2023-05-03T22:56:21;1025.8;;;10.7;93
45113;BME280;30873;53.908;27.576;2023-05-03T23:01:47;1025.8;;;10.7;92
45113;BME280;30873;53.908;27.576;2023-05-03T23:06:33;1025.8;;;10.7;92
45113;BME280;30873;53.908;27.576;2023-05-03T23:11:45;1025.8;;;10.6;92.1
45113;BME280;30873;53.908;27.576;2023-05-03T23:17:01;1025.8;;;10.4;94.7
45113;BME280;30873;53.908;27.576;2023-05-03T23:21:21;1025.8;;;10.3;96.1
45113;BME280;30873;53.908;27.576;2023-05-03T23:26:59;1025.7;;;10.3;97
45113;BME280;30873;53.908;27.576;2023-05-03T23:31:51;1025.8;;;10.4;98.4
45113;BME280;30873;53.908;27.576;2023-05-03T23:36:11;1025.8;;;10.3;99.9
45113;BME280;30873;53.908;27.576;2023-05-03T23:41:49;1025.8;;;10.3;100
45113;BME280;30873;53.908;27.576;2023-05-03T23:46:23;1025.7;;;10.2;100
45113;BME280;30873;53.908;27.576;2023-05-03T23:52:01;1025.7;;;10.2;100
45113;BME280;30873;53.908;27.576;2023-05-03T23:56:27;1025.7;;;10.2;100
